Pagrindinis puslapis
METAR-TAF:

METAR-TAF

Oro uostai :

Tete, Mozambikas

platuma: 16-06S, ilguma: 033-38E, Aukštis: 160 m

Dabartinis oras

Ataskaita buvo paskelbta 21 minutes, ne 17:00 UTC
Vėjas 8 kt iš Rytų
Temperatūra 30°C
Drėgmė 46%
Slėgis 1012 hPa
Matomumas 10 km arba daugiau
Mažai debesys ne aukštis 2000 ft

METAR: FQTT 311700Z 09008KT 9999 FEW020 30/17 Q1012

Laikas: 19:21 (17:21 UTC)

Prognozė

Ataskaita buvo paskelbta 7 valandos ir 21 minutes, ne 10:00 UTC
Prognozė galioja nuo 31 metu 12 UTC su 01 metu 12 UTC
Vėjas 8 kt iš Rytų/Šiaurės Rytų
Matomumas 10 km arba daugiau
Išsisklaidę debesys ne aukštis 2000 ft
Tapsmas
nuo 01 metu 06 UTC su 01 metu 08 UTC
Vėjas 10 kt iš Rytų/Pietryčių

TAF: FQTT 311000Z 3112/0112 06008KT 9999 SCT020 TX35/3113Z TN24/0103Z BECMG 0106/0108 12010KT

Orai ataskaitas ir orų prognozės (METAR, TAF).

turimą stotys yra geltonos ir raudonos taškus žemėlapyje.

Perkelti pele per norėdami pamatyti stoties vardą.

Tada spustelėkite, norėdami matyti oro stebėjimo ir prognozės.

Norėdami pakeisti žemėlapį: spustelėkite ant žalios mygtukų su juodo kryžiaus žemyn,; žalią mygtuką su brūkšneliu, jei norite nutolinti; arba žalių rodyklių gretimoms žemėlapius.


METAR-TAF: